createdAt,value
2023-01-25T00:00:00.905Z,77.32
2023-01-25T00:02:32.662Z,76.43
2023-01-25T00:05:04.936Z,76.14
2023-01-25T00:07:36.769Z,75.64
2023-01-25T00:10:09.116Z,75.15
2023-01-25T00:12:40.829Z,74.83
2023-01-25T00:15:12.610Z,74.71
2023-01-25T00:17:44.353Z,75.35
2023-01-25T00:20:16.607Z,75.36
2023-01-25T00:22:48.291Z,75.50
2023-01-25T00:25:19.934Z,75.65
2023-01-25T00:27:52.435Z,74.94
2023-01-25T00:30:24.140Z,75.90
2023-01-25T00:33:29.473Z,75.28
2023-01-25T00:36:01.743Z,74.67
2023-01-25T00:38:38.591Z,75.30
2023-01-25T00:41:10.419Z,74.73
2023-01-25T00:43:42.458Z,75.20
2023-01-25T00:46:17.184Z,75.68
2023-01-25T00:48:49.495Z,74.94
2023-01-25T00:51:22.706Z,75.44
2023-01-25T00:53:54.614Z,75.46
2023-01-25T00:56:29.060Z,75.02
2023-01-25T00:59:00.721Z,75.01
2023-01-25T01:01:34.124Z,75.38
2023-01-25T01:04:06.671Z,75.08
2023-01-25T01:06:39.933Z,76.04
2023-01-25T01:09:14.832Z,75.34
2023-01-25T01:11:46.486Z,75.24
2023-01-25T01:14:18.717Z,75.58
2023-01-25T01:16:50.550Z,75.86
2023-01-25T01:19:23.626Z,75.20
2023-01-25T01:21:55.915Z,75.15
2023-01-25T01:24:27.689Z,75.46
2023-01-25T01:26:59.382Z,75.12
2023-01-25T01:29:32.246Z,75.32
2023-01-25T01:32:05.084Z,75.16
2023-01-25T01:34:36.945Z,74.75
2023-01-25T01:37:08.668Z,75.27
2023-01-25T01:39:40.551Z,75.39
2023-01-25T01:42:12.475Z,75.09
2023-01-25T01:44:53.315Z,74.98
2023-01-25T01:47:31.694Z,74.54
2023-01-25T01:50:28.866Z,75.45
2023-01-25T01:53:00.689Z,74.91
2023-01-25T01:55:32.622Z,75.39
2023-01-25T01:58:06.507Z,74.83
2023-01-25T02:00:40.701Z,75.71
2023-01-25T02:03:14.868Z,75.41
2023-01-25T02:06:04.842Z,75.51
2023-01-25T02:08:40.814Z,75.13
2023-01-25T02:11:13.748Z,75.36
2023-01-25T02:13:45.679Z,74.98
2023-01-25T02:16:26.136Z,74.61
2023-01-25T02:19:02.142Z,75.52
2023-01-25T02:21:43.213Z,75.08
2023-01-25T02:24:28.043Z,75.37
2023-01-25T02:27:01.221Z,75.48
2023-01-25T02:29:33.392Z,75.91
2023-01-25T02:32:06.575Z,75.52
2023-01-25T02:34:38.304Z,75.45
2023-01-25T02:37:14.520Z,75.17
2023-01-25T02:39:46.381Z,75.55
2023-01-25T02:42:18.313Z,75.27
2023-01-25T02:44:51.345Z,75.69
2023-01-25T02:47:23.026Z,74.94
2023-01-25T02:49:54.691Z,75.49
2023-01-25T02:52:26.778Z,75.30
2023-01-25T02:55:00.752Z,75.08
2023-01-25T02:57:32.961Z,74.74
2023-01-25T03:00:06.603Z,74.67
2023-01-25T03:02:41.559Z,74.50
2023-01-25T03:05:13.264Z,74.66
2023-01-25T03:07:44.980Z,74.24
2023-01-25T03:10:16.790Z,74.93
2023-01-25T03:12:48.591Z,75.08
2023-01-25T03:15:23.384Z,75.53
2023-01-25T03:17:56.745Z,75.96
2023-01-25T03:20:28.596Z,75.95
2023-01-25T03:23:00.273Z,74.97
2023-01-25T03:25:32.735Z,74.87
2023-01-25T03:28:13.648Z,75.46
2023-01-25T03:30:49.941Z,75.03
2023-01-25T03:33:22.271Z,76.02
2023-01-25T03:35:55.095Z,75.86
2023-01-25T03:38:27.600Z,75.47
2023-01-25T03:40:59.604Z,75.84
2023-01-25T03:43:32.529Z,75.47
2023-01-25T03:46:08.118Z,75.98
2023-01-25T03:48:39.801Z,75.49
2023-01-25T03:51:11.641Z,74.96
2023-01-25T03:53:46.674Z,74.94
2023-01-25T03:56:21.299Z,75.96
2023-01-25T03:59:06.837Z,75.72
2023-01-25T04:01:40.059Z,75.62
2023-01-25T04:04:12.703Z,76.14
2023-01-25T04:06:46.484Z,76.39
2023-01-25T04:09:21.703Z,76.32
2023-01-25T04:11:56.852Z,76.74
2023-01-25T04:14:43.658Z,77.32
2023-01-25T04:17:17.568Z,77.38
2023-01-25T04:19:57.030Z,76.84
2023-01-25T04:22:33.626Z,77.30
2023-01-25T04:25:06.340Z,76.87
2023-01-25T04:27:38.769Z,76.81
2023-01-25T04:30:18.817Z,76.84
2023-01-25T04:32:53.047Z,76.78
2023-01-25T04:35:35.070Z,76.22
2023-01-25T04:38:10.755Z,76.45
2023-01-25T04:40:46.196Z,75.57
2023-01-25T04:43:19.170Z,75.78
2023-01-25T04:45:56.791Z,76.42
2023-01-25T04:48:34.294Z,77.03
2023-01-25T04:51:09.920Z,76.83
2023-01-25T04:53:41.655Z,76.76
2023-01-25T04:56:15.162Z,76.36
2023-01-25T04:58:55.211Z,76.16
2023-01-25T05:01:27.114Z,76.67
2023-01-25T05:03:59.880Z,76.74
2023-01-25T05:06:42.486Z,76.21
2023-01-25T05:09:15.057Z,76.20
2023-01-25T05:11:46.966Z,76.38
2023-01-25T05:14:44.721Z,76.09
2023-01-25T05:17:19.658Z,76.97
2023-01-25T05:19:51.244Z,76.30
2023-01-25T05:22:26.184Z,76.70
2023-01-25T05:24:59.255Z,76.73
2023-01-25T05:27:31.096Z,76.92
2023-01-25T05:30:02.761Z,77.27
2023-01-25T05:33:00.461Z,76.85
2023-01-25T05:35:32.196Z,76.33
2023-01-25T05:38:04.486Z,76.72
2023-01-25T05:40:36.150Z,76.76
2023-01-25T05:43:08.740Z,76.97
2023-01-25T05:45:40.561Z,76.68
2023-01-25T05:48:13.283Z,76.97
2023-01-25T05:50:44.897Z,76.86
2023-01-25T05:53:26.074Z,77.34
2023-01-25T05:56:06.671Z,77.17
2023-01-25T05:58:39.664Z,77.36
2023-01-25T06:01:11.929Z,77.42
2023-01-25T06:03:52.700Z,77.40
2023-01-25T06:06:25.198Z,77.35
2023-01-25T06:08:58.135Z,77.26
2023-01-25T06:11:36.346Z,77.46
2023-01-25T06:14:10.454Z,77.06
2023-01-25T06:16:42.641Z,77.01
2023-01-25T06:19:39.387Z,76.59
2023-01-25T06:22:14.656Z,77.14
2023-01-25T06:24:46.364Z,77.30
2023-01-25T06:27:18.070Z,77.55
2023-01-25T06:29:50.472Z,76.29
2023-01-25T06:32:22.205Z,76.57
2023-01-25T06:34:55.897Z,76.93
2023-01-25T06:37:29.468Z,76.95
2023-01-25T06:40:01.252Z,77.32
2023-01-25T06:42:32.878Z,76.95
2023-01-25T06:45:04.987Z,76.84
2023-01-25T06:47:36.608Z,76.45
2023-01-25T06:50:09.848Z,76.97
2023-01-25T06:52:41.523Z,76.83
2023-01-25T06:55:14.995Z,76.19
2023-01-25T06:57:46.862Z,77.09
2023-01-25T07:00:19.488Z,76.60
2023-01-25T07:02:51.251Z,77.04
2023-01-25T07:05:25.757Z,76.55
2023-01-25T07:07:58.240Z,76.48
2023-01-25T07:10:30.434Z,76.57
2023-01-25T07:13:03.081Z,76.31
2023-01-25T07:15:34.752Z,76.50
2023-01-25T07:18:15.920Z,76.74
2023-01-25T07:20:50.705Z,76.73
2023-01-25T07:23:22.354Z,76.83
2023-01-25T07:25:54.037Z,76.74
2023-01-25T07:28:25.716Z,76.47
2023-01-25T07:31:03.757Z,77.08
2023-01-25T07:33:35.802Z,77.24
2023-01-25T07:36:10.048Z,77.00
2023-01-25T07:38:41.909Z,77.17
2023-01-25T07:41:14.695Z,76.79
2023-01-25T07:43:47.189Z,76.78
2023-01-25T07:46:25.514Z,76.82
2023-01-25T07:48:58.878Z,76.94
2023-01-25T07:51:31.162Z,77.62
2023-01-25T07:54:05.388Z,77.32
2023-01-25T07:56:38.478Z,77.50
2023-01-25T07:59:10.770Z,77.15
2023-01-25T08:01:43.671Z,76.45
2023-01-25T08:04:16.651Z,76.81
2023-01-25T08:06:48.445Z,76.47
2023-01-25T08:09:20.383Z,77.18
2023-01-25T08:11:53.692Z,76.99
2023-01-25T08:14:25.606Z,76.69
2023-01-25T08:16:57.358Z,76.45
2023-01-25T08:19:29.005Z,76.88
2023-01-25T08:22:02.927Z,76.81
2023-01-25T08:24:37.654Z,76.79
2023-01-25T08:27:09.393Z,77.51
2023-01-25T08:29:41.018Z,77.49
2023-01-25T08:32:12.815Z,76.43
2023-01-25T08:34:47.490Z,76.81
2023-01-25T08:37:20.028Z,77.44
2023-01-25T08:39:51.802Z,77.74
2023-01-25T08:42:26.595Z,77.30
2023-01-25T08:44:58.543Z,77.59
2023-01-25T08:47:30.500Z,77.08
2023-01-25T08:50:03.063Z,76.85
2023-01-25T08:52:37.591Z,76.42
2023-01-25T08:55:10.772Z,76.93
2023-01-25T08:57:42.817Z,76.45
2023-01-25T09:00:15.092Z,76.40
2023-01-25T09:02:48.443Z,75.86
2023-01-25T09:05:20.077Z,76.48
2023-01-25T09:07:51.734Z,76.61
2023-01-25T09:10:23.525Z,76.34
2023-01-25T09:12:55.515Z,76.57
2023-01-25T09:15:29.664Z,76.08
2023-01-25T09:18:01.451Z,75.91
2023-01-25T09:20:34.554Z,76.04
2023-01-25T09:23:06.542Z,75.96
2023-01-25T09:25:38.244Z,76.34
2023-01-25T09:28:11.619Z,76.15
2023-01-25T09:30:48.294Z,76.44
2023-01-25T09:33:36.742Z,75.66
2023-01-25T09:36:09.956Z,76.28
2023-01-25T09:38:41.921Z,75.62
2023-01-25T09:41:41.902Z,75.35
2023-01-25T09:44:45.303Z,75.57
2023-01-25T09:47:27.549Z,75.25
2023-01-25T09:50:17.035Z,76.12
2023-01-25T09:53:21.898Z,76.12
2023-01-25T09:56:01.316Z,75.28
2023-01-25T09:58:39.744Z,76.15
2023-01-25T10:01:38.482Z,75.52
2023-01-25T10:04:18.805Z,75.91
2023-01-25T10:07:01.306Z,75.83
2023-01-25T10:09:42.725Z,75.90
2023-01-25T10:12:25.753Z,76.09
2023-01-25T10:14:57.457Z,76.56
2023-01-25T10:17:40.705Z,76.73
2023-01-25T10:20:24.237Z,76.28
2023-01-25T10:23:40.011Z,76.67
2023-01-25T10:26:35.864Z,75.84
2023-01-25T10:29:27.542Z,76.34
2023-01-25T10:32:35.911Z,75.84
2023-01-25T10:35:34.831Z,76.41
2023-01-25T10:38:30.979Z,75.75
2023-01-25T10:41:28.818Z,75.87
2023-01-25T10:44:18.971Z,76.47
2023-01-25T10:47:11.673Z,75.55
2023-01-25T10:49:55.015Z,75.38
2023-01-25T10:52:32.268Z,75.89
2023-01-25T10:55:07.384Z,76.28
2023-01-25T10:57:44.327Z,76.22
2023-01-25T11:00:35.609Z,76.32
2023-01-25T11:03:22.582Z,75.92
2023-01-25T11:05:57.061Z,75.36
2023-01-25T11:08:38.643Z,75.24
2023-01-25T11:11:36.219Z,74.58
2023-01-25T11:14:17.627Z,74.72
2023-01-25T11:16:49.642Z,75.39
2023-01-25T11:19:43.560Z,74.34
2023-01-25T11:22:24.791Z,74.62
2023-01-25T11:24:56.538Z,73.82
2023-01-25T11:27:28.501Z,73.81
2023-01-25T11:30:06.581Z,73.63
2023-01-25T11:32:40.313Z,73.43
2023-01-25T11:35:34.515Z,73.40
2023-01-25T11:38:14.463Z,72.67
2023-01-25T11:40:51.037Z,72.92
2023-01-25T11:43:48.345Z,72.84
2023-01-25T11:47:01.757Z,72.87
2023-01-25T11:49:51.363Z,72.08
2023-01-25T11:52:46.378Z,72.62
2023-01-25T11:55:34.298Z,73.08
2023-01-25T11:59:16.710Z,72.02
2023-01-25T12:02:00.066Z,71.87
2023-01-25T12:04:50.117Z,70.75
2023-01-25T12:07:46.738Z,71.43
2023-01-25T12:10:34.578Z,70.52
2023-01-25T12:13:18.277Z,70.16
2023-01-25T12:15:58.798Z,70.44
2023-01-25T12:19:02.015Z,70.78
2023-01-25T12:21:41.481Z,70.44
2023-01-25T12:24:50.103Z,70.33
2023-01-25T12:27:48.741Z,70.01
2023-01-25T12:30:51.265Z,70.59
2023-01-25T12:33:28.191Z,69.99
2023-01-25T12:36:08.774Z,70.17
2023-01-25T12:38:53.038Z,70.18
2023-01-25T12:41:46.402Z,70.30
2023-01-25T12:44:50.314Z,70.42
2023-01-25T12:47:33.397Z,70.59
2023-01-25T12:50:23.340Z,70.35
2023-01-25T12:53:01.747Z,70.46
2023-01-25T12:55:33.693Z,69.83
2023-01-25T12:58:43.869Z,70.31
2023-01-25T13:01:46.773Z,69.85
2023-01-25T13:04:37.316Z,70.29
2023-01-25T13:07:14.775Z,70.25
2023-01-25T13:10:18.933Z,69.37
2023-01-25T13:13:03.218Z,69.63
2023-01-25T13:15:36.319Z,69.98
2023-01-25T13:18:30.138Z,69.44
2023-01-25T13:21:05.553Z,69.27
2023-01-25T13:23:43.825Z,70.34
2023-01-25T13:26:21.657Z,70.11
2023-01-25T13:28:59.649Z,69.72
2023-01-25T13:31:53.071Z,70.21
2023-01-25T13:34:40.334Z,69.35
2023-01-25T13:37:29.103Z,70.02
2023-01-25T13:40:34.470Z,69.66
2023-01-25T13:43:19.099Z,69.65
2023-01-25T13:45:53.104Z,69.85
2023-01-25T13:48:28.684Z,69.96
2023-01-25T13:51:10.898Z,70.63
2023-01-25T13:53:43.416Z,70.58
2023-01-25T13:56:30.650Z,70.62
2023-01-25T13:59:02.932Z,70.62
2023-01-25T14:01:36.969Z,69.84
2023-01-25T14:04:12.316Z,70.64
2023-01-25T14:06:45.173Z,70.52
2023-01-25T14:09:20.899Z,70.03
2023-01-25T14:11:58.468Z,70.26
2023-01-25T14:14:35.322Z,70.53
2023-01-25T14:17:09.950Z,70.99
2023-01-25T14:19:44.633Z,70.39
2023-01-25T14:22:33.426Z,71.07
2023-01-25T14:25:15.533Z,71.18
2023-01-25T14:27:59.131Z,71.26
2023-01-25T14:30:32.802Z,70.89
2023-01-25T14:33:18.436Z,71.39
2023-01-25T14:35:57.400Z,71.58
2023-01-25T14:38:36.124Z,70.85
2023-01-25T14:41:43.761Z,71.27
2023-01-25T14:44:21.267Z,71.21
2023-01-25T14:47:26.655Z,70.89
2023-01-25T14:50:30.730Z,70.36
2023-01-25T14:53:24.561Z,70.81
2023-01-25T14:55:57.429Z,71.32
2023-01-25T14:58:31.611Z,71.72
2023-01-25T15:01:03.776Z,71.30
2023-01-25T15:03:44.732Z,71.91
2023-01-25T15:06:17.007Z,71.79
2023-01-25T15:08:48.943Z,71.59
2023-01-25T15:11:38.647Z,72.53
2023-01-25T15:14:17.375Z,72.15
2023-01-25T15:16:50.698Z,72.02
2023-01-25T15:19:30.221Z,72.53
2023-01-25T15:22:01.933Z,72.86
2023-01-25T15:24:33.747Z,73.19
2023-01-25T15:27:05.457Z,73.08
2023-01-25T15:29:38.673Z,72.78
2023-01-25T15:32:20.712Z,72.89
2023-01-25T15:35:00.769Z,72.38
2023-01-25T15:37:32.511Z,72.80
2023-01-25T15:40:04.654Z,73.14
2023-01-25T15:42:39.646Z,73.41
2023-01-25T15:45:13.651Z,73.08
2023-01-25T15:47:45.804Z,73.47
2023-01-25T15:50:21.642Z,72.48
2023-01-25T15:52:53.354Z,73.84
2023-01-25T15:55:25.386Z,73.75
2023-01-25T15:57:57.808Z,73.75
2023-01-25T16:00:29.493Z,73.86
2023-01-25T16:03:01.143Z,74.88
2023-01-25T16:05:32.869Z,74.49
2023-01-25T16:08:06.526Z,74.65
2023-01-25T16:10:38.275Z,74.50
2023-01-25T16:13:10.725Z,74.56
2023-01-25T16:15:42.995Z,74.33
2023-01-25T16:18:15.200Z,73.95
2023-01-25T16:20:48.765Z,74.01
2023-01-25T16:23:20.395Z,74.08
2023-01-25T16:25:52.143Z,73.90
2023-01-25T16:28:24.547Z,73.38
2023-01-25T16:30:57.904Z,74.29
2023-01-25T16:33:29.668Z,74.10
2023-01-25T16:36:13.029Z,74.19
2023-01-25T16:38:45.060Z,74.43
2023-01-25T16:41:17.275Z,74.58
2023-01-25T16:43:49.145Z,74.49
2023-01-25T16:46:23.034Z,74.71
2023-01-25T16:48:57.835Z,74.84
2023-01-25T16:51:32.925Z,74.89
2023-01-25T16:54:04.630Z,74.45
2023-01-25T16:56:36.301Z,74.72
2023-01-25T16:59:09.427Z,74.89
2023-01-25T17:01:41.911Z,75.22
2023-01-25T17:04:15.461Z,74.91
2023-01-25T17:06:49.995Z,75.19
2023-01-25T17:09:24.988Z,75.10
2023-01-25T17:11:57.220Z,75.17
2023-01-25T17:14:28.909Z,75.85
2023-01-25T17:17:01.750Z,75.07
2023-01-25T17:19:37.287Z,75.98
2023-01-25T17:22:09.489Z,75.32
2023-01-25T17:24:41.345Z,75.55
2023-01-25T17:27:13.067Z,74.93
2023-01-25T17:29:46.433Z,75.23
2023-01-25T17:32:18.218Z,74.92
2023-01-25T17:34:50.446Z,74.79
2023-01-25T17:37:23.616Z,75.13
2023-01-25T17:39:55.476Z,74.67
2023-01-25T17:42:27.164Z,74.68
2023-01-25T17:44:58.980Z,74.88
2023-01-25T17:47:31.741Z,74.72
2023-01-25T17:50:03.998Z,74.63
2023-01-25T17:52:35.810Z,74.47
2023-01-25T17:55:10.363Z,74.48
2023-01-25T17:57:43.261Z,74.34
2023-01-25T18:00:15.521Z,73.88
2023-01-25T18:02:47.791Z,73.81
2023-01-25T18:05:19.615Z,74.12
2023-01-25T18:07:53.317Z,74.01
2023-01-25T18:10:26.407Z,74.17
2023-01-25T18:13:04.477Z,74.31
2023-01-25T18:15:39.901Z,74.12
2023-01-25T18:18:11.535Z,74.59
2023-01-25T18:20:54.849Z,74.86
2023-01-25T18:23:27.008Z,74.91
2023-01-25T18:26:00.941Z,74.85
2023-01-25T18:28:40.047Z,74.93
2023-01-25T18:31:17.787Z,75.33
2023-01-25T18:33:55.636Z,74.58
2023-01-25T18:36:30.448Z,75.05
2023-01-25T18:39:02.245Z,74.81
2023-01-25T18:41:33.997Z,75.00
2023-01-25T18:44:07.365Z,74.63
2023-01-25T18:46:43.135Z,74.82
2023-01-25T18:49:14.930Z,74.85
2023-01-25T18:52:05.203Z,74.44
2023-01-25T18:54:47.196Z,74.12
2023-01-25T18:57:21.611Z,74.81
2023-01-25T18:59:57.453Z,74.02
2023-01-25T19:02:30.924Z,74.49
2023-01-25T19:05:02.709Z,74.23
2023-01-25T19:07:34.543Z,74.58
2023-01-25T19:10:07.402Z,75.13
2023-01-25T19:12:39.124Z,74.83
2023-01-25T19:15:11.410Z,74.97
2023-01-25T19:17:46.557Z,75.30
2023-01-25T19:20:18.503Z,75.34
2023-01-25T19:22:54.204Z,75.18
2023-01-25T19:25:26.438Z,74.74
2023-01-25T19:27:59.114Z,75.37
2023-01-25T19:30:31.648Z,75.07
2023-01-25T19:33:03.534Z,75.10
2023-01-25T19:35:35.299Z,75.52
2023-01-25T19:38:07.923Z,75.20
2023-01-25T19:40:40.777Z,74.97
2023-01-25T19:43:12.984Z,75.19
2023-01-25T19:45:44.776Z,74.76
2023-01-25T19:48:16.566Z,75.54
2023-01-25T19:50:52.323Z,75.14
2023-01-25T19:53:26.134Z,75.47
2023-01-25T19:56:01.821Z,75.22
2023-01-25T19:58:34.252Z,75.40
2023-01-25T20:01:10.907Z,75.51
2023-01-25T20:03:43.251Z,76.21
2023-01-25T20:06:17.915Z,76.31
2023-01-25T20:08:49.700Z,75.99
2023-01-25T20:11:27.453Z,76.15
2023-01-25T20:14:02.222Z,76.50
2023-01-25T20:16:36.106Z,76.09
2023-01-25T20:19:07.807Z,76.09
2023-01-25T20:21:42.022Z,76.03
2023-01-25T20:24:16.769Z,76.00
2023-01-25T20:26:49.041Z,75.58
2023-01-25T20:29:21.505Z,76.24
2023-01-25T20:31:54.552Z,75.65
2023-01-25T20:34:26.889Z,75.21
2023-01-25T20:37:00.327Z,75.31
2023-01-25T20:39:31.991Z,75.44
2023-01-25T20:42:03.793Z,75.46
2023-01-25T20:44:35.518Z,75.08
2023-01-25T20:47:07.238Z,75.74
2023-01-25T20:49:41.887Z,75.37
2023-01-25T20:52:13.974Z,75.56
2023-01-25T20:54:45.676Z,75.98
2023-01-25T20:57:17.354Z,75.48
2023-01-25T20:59:49.818Z,75.58
2023-01-25T21:02:21.548Z,75.21
2023-01-25T21:04:54.012Z,75.51
2023-01-25T21:07:25.696Z,75.24
2023-01-25T21:09:57.337Z,75.20
2023-01-25T21:12:35.174Z,74.97
2023-01-25T21:15:11.016Z,75.46
2023-01-25T21:17:42.999Z,75.04
2023-01-25T21:20:15.183Z,74.90
2023-01-25T21:22:47.248Z,75.24
2023-01-25T21:25:18.961Z,75.27
2023-01-25T21:27:51.058Z,75.45
2023-01-25T21:30:25.656Z,75.45
2023-01-25T21:32:57.416Z,75.24
2023-01-25T21:35:29.566Z,75.24
2023-01-25T21:38:04.247Z,74.93
2023-01-25T21:40:38.798Z,75.52
2023-01-25T21:43:12.194Z,75.50
2023-01-25T21:46:05.019Z,75.13
2023-01-25T21:49:03.718Z,74.99
2023-01-25T21:51:35.400Z,74.79
2023-01-25T21:54:10.346Z,74.76
2023-01-25T21:56:42.735Z,74.56
2023-01-25T21:59:15.166Z,74.78
2023-01-25T22:01:47.527Z,74.63
2023-01-25T22:04:22.203Z,74.84
2023-01-25T22:06:55.112Z,74.98
2023-01-25T22:09:27.307Z,75.53
2023-01-25T22:12:01.810Z,75.52
2023-01-25T22:14:34.810Z,75.51
2023-01-25T22:17:06.509Z,75.68
2023-01-25T22:19:38.257Z,75.28
2023-01-25T22:22:12.686Z,75.91
2023-01-25T22:24:44.836Z,75.51
2023-01-25T22:27:44.839Z,75.76
2023-01-25T22:30:17.342Z,75.13
2023-01-25T22:32:49.014Z,75.71
2023-01-25T22:35:20.725Z,75.62
2023-01-25T22:37:52.424Z,75.60
2023-01-25T22:40:26.736Z,75.52
2023-01-25T22:42:58.428Z,75.42
2023-01-25T22:45:30.172Z,75.65
2023-01-25T22:48:01.839Z,75.40
2023-01-25T22:50:33.569Z,75.94
2023-01-25T22:53:06.525Z,75.65
2023-01-25T22:55:38.218Z,76.15
2023-01-25T22:58:10.708Z,75.85
2023-01-25T23:00:45.946Z,75.93
2023-01-25T23:03:17.624Z,75.54
2023-01-25T23:05:50.625Z,76.08
2023-01-25T23:08:22.281Z,75.46
2023-01-25T23:10:59.903Z,75.94
2023-01-25T23:13:31.761Z,75.85
2023-01-25T23:16:05.082Z,76.10
2023-01-25T23:18:52.115Z,76.11
2023-01-25T23:21:27.310Z,75.59
2023-01-25T23:24:01.029Z,75.82
2023-01-25T23:26:38.019Z,76.18
2023-01-25T23:29:12.672Z,75.53
2023-01-25T23:31:44.838Z,76.01
2023-01-25T23:34:19.224Z,75.77
2023-01-25T23:36:50.975Z,75.94
2023-01-25T23:39:28.682Z,75.87
2023-01-25T23:42:00.341Z,76.11
2023-01-25T23:44:34.664Z,75.85
2023-01-25T23:47:06.367Z,76.24
2023-01-25T23:49:38.138Z,75.84
2023-01-25T23:52:09.951Z,75.56
2023-01-25T23:54:41.587Z,75.52
2023-01-25T23:57:13.352Z,75.77
2023-01-25T23:59:45.039Z,75.32
